Time;durP1;ratioP1;P1;durP2;ratioP2;P2;SDS_P1;SDS_P2;PMS_P1;PMS_P2;Temp;Humidity;BMP_temperature;BMP_pressure;BME280_temperature;BME280_humidity;BME280_pressure;Samples;Min_cycle;Max_cycle;Signal;HPM_P1;HPM_P2
2023/11/22 00:00:31;;;;;;;36.60;15.00;;;;;;;1.83;100.00;99164.80;67717;1280;1016360;-69
2023/11/22 00:03:54;;;;;;;34.20;13.90;;;;;;;1.93;100.00;99169.94;67664;1280;1016476;-70
2023/11/22 00:06:56;;;;;;;34.60;14.50;;;;;;;1.98;100.00;99170.02;67707;1279;1016410;-70
2023/11/22 00:10:01;;;;;;;36.40;15.70;;;;;;;2.05;100.00;99175.22;67685;1280;1016186;-69
2023/11/22 00:13:04;;;;;;;41.10;16.30;;;;;;;2.05;100.00;99182.98;67675;1260;1016363;-69
2023/11/22 00:16:08;;;;;;;39.40;17.30;;;;;;;2.07;100.00;99186.90;67670;1280;1016338;-69
2023/11/22 00:19:11;;;;;;;39.50;15.80;;;;;;;1.98;100.00;99192.25;67700;1280;1016341;-69
2023/11/22 00:22:14;;;;;;;38.40;14.90;;;;;;;1.95;100.00;99199.04;67667;1280;1016250;-69
2023/11/22 00:25:18;;;;;;;36.00;14.20;;;;;;;1.90;100.00;99200.86;67670;1280;1016473;-70
2023/11/22 00:28:20;;;;;;;35.10;14.20;;;;;;;1.98;100.00;99209.17;67671;1280;1016426;-69
2023/11/22 00:31:23;;;;;;;34.90;14.10;;;;;;;2.02;100.00;99207.52;67716;1280;1016299;-69
2023/11/22 00:34:26;;;;;;;;;;;;;;;2.01;100.00;99207.38;67641;1280;1016414;-69
2023/11/22 00:37:29;;;;;;;33.70;13.60;;;;;;;1.96;100.00;99209.03;67695;1280;1016298;-70
2023/11/22 00:40:31;;;;;;;36.00;14.60;;;;;;;1.96;100.00;99212.83;67677;1280;1016308;-70
2023/11/22 00:43:34;;;;;;;36.50;13.90;;;;;;;1.97;100.00;99218.34;67655;1280;1016253;-70
2023/11/22 00:46:37;;;;;;;33.40;14.00;;;;;;;1.97;100.00;99220.92;67681;1280;1016875;-70
2023/11/22 00:49:39;;;;;;;;;;;;;;;2.07;100.00;99221.58;67710;1280;1016471;-70
2023/11/22 00:52:44;;;;;;;35.60;15.00;;;;;;;2.12;100.00;99225.11;67622;1280;1016450;-69
2023/11/22 00:55:47;;;;;;;35.60;14.10;;;;;;;2.01;100.00;99223.77;67687;1280;1016397;-70
2023/11/22 00:58:49;;;;;;;35.00;12.90;;;;;;;2.03;100.00;99225.09;67659;1280;1017070;-70
2023/11/22 01:01:52;;;;;;;34.60;13.70;;;;;;;1.93;100.00;99228.58;67670;1280;1016617;-69
2023/11/22 01:04:54;;;;;;;31.30;12.90;;;;;;;1.87;100.00;99240.77;67709;1280;1016478;-69
2023/11/22 01:07:57;;;;;;;35.00;13.40;;;;;;;1.81;100.00;99239.33;67709;1280;1016340;-70
2023/11/22 01:11:00;;;;;;;;;;;;;;;1.71;100.00;99239.85;67677;1280;1016339;-70
2023/11/22 01:14:02;;;;;;;29.10;12.00;;;;;;;1.65;100.00;99252.39;67652;1280;1016445;-70
2023/11/22 01:17:05;;;;;;;34.40;13.70;;;;;;;1.73;100.00;99255.52;67706;1280;1016913;-69
2023/11/22 01:20:11;;;;;;;37.70;14.90;;;;;;;1.77;100.00;99250.27;67685;1280;1016349;-69
2023/11/22 01:23:14;;;;;;;31.40;11.50;;;;;;;1.81;100.00;99252.61;67669;1280;1016197;-69
2023/11/22 01:26:17;;;;;;;33.30;13.80;;;;;;;1.80;100.00;99257.45;67708;1280;1016483;-70
2023/11/22 01:29:20;;;;;;;32.60;13.50;;;;;;;1.74;100.00;99260.84;67643;1280;1016320;-69
2023/11/22 01:32:22;;;;;;;30.40;12.40;;;;;;;1.80;100.00;99267.46;67655;1280;1016453;-70
2023/11/22 01:35:25;;;;;;;32.90;12.70;;;;;;;1.85;100.00;99272.88;67718;1280;1016507;-69
2023/11/22 01:38:27;;;;;;;31.60;12.20;;;;;;;1.93;100.00;99272.56;67675;1280;1016536;-70
2023/11/22 01:41:30;;;;;;;33.40;11.90;;;;;;;1.83;100.00;99273.45;67657;1280;1016503;-68
2023/11/22 01:44:33;;;;;;;31.20;12.50;;;;;;;1.76;100.00;99276.67;65145;1280;6400070;-68
2023/11/22 01:47:35;;;;;;;33.40;12.90;;;;;;;1.71;100.00;99271.92;67658;1280;1016646;-70
2023/11/22 01:50:40;;;;;;;30.40;11.70;;;;;;;1.88;100.00;99274.02;67618;1280;1016513;-70
2023/11/22 01:53:43;;;;;;;32.20;12.30;;;;;;;1.92;100.00;99276.05;67664;1280;1016446;-69
2023/11/22 01:56:46;;;;;;;34.30;13.20;;;;;;;1.91;100.00;99277.77;67591;1280;1018420;-69
2023/11/22 01:59:49;;;;;;;30.60;12.40;;;;;;;1.95;100.00;99278.73;67684;1280;1016447;-70
2023/11/22 02:02:51;;;;;;;31.90;13.30;;;;;;;1.87;100.00;99280.09;67654;1280;1016112;-69
2023/11/22 02:05:54;;;;;;;31.00;13.10;;;;;;;1.87;100.00;99293.38;67654;1280;1016537;-70
2023/11/22 02:08:57;;;;;;;34.60;14.00;;;;;;;1.86;100.00;99292.52;67702;1280;1016262;-70
2023/11/22 02:11:59;;;;;;;31.80;11.90;;;;;;;1.87;100.00;99295.27;67692;1280;1016491;-70
2023/11/22 02:15:02;;;;;;;32.90;13.40;;;;;;;1.79;100.00;99293.16;67700;1280;1018198;-70
2023/11/22 02:18:06;;;;;;;34.20;13.30;;;;;;;1.74;100.00;99292.92;67705;1280;1018516;-69
2023/11/22 02:21:09;;;;;;;33.00;12.70;;;;;;;1.84;100.00;99298.08;67681;1280;1016400;-70
2023/11/22 02:24:11;;;;;;;29.50;12.10;;;;;;;1.87;100.00;99307.34;67665;1280;1016912;-67
2023/11/22 02:27:14;;;;;;;29.50;11.90;;;;;;;1.82;100.00;99310.20;67705;1280;1016477;-69
2023/11/22 02:30:16;;;;;;;30.90;11.70;;;;;;;1.76;100.00;99319.27;67705;1280;1016305;-69
2023/11/22 02:33:19;;;;;;;31.60;11.90;;;;;;;1.65;100.00;99322.19;67667;1280;1016632;-69
2023/11/22 02:36:21;;;;;;;32.10;12.80;;;;;;;1.47;100.00;99323.19;67648;1280;1016507;-69
2023/11/22 02:39:24;;;;;;;30.00;10.90;;;;;;;1.55;100.00;99334.61;67709;1262;1016398;-69
2023/11/22 02:42:27;;;;;;;31.80;12.00;;;;;;;1.47;100.00;99338.17;67668;1280;1016402;-69
2023/11/22 02:45:30;;;;;;;;;;;;;;;1.56;100.00;99340.96;67698;1280;1016439;-69
2023/11/22 02:48:33;;;;;;;31.00;11.80;;;;;;;1.38;100.00;99341.75;67663;1280;1017769;-70
2023/11/22 02:51:35;;;;;;;32.40;11.60;;;;;;;1.41;100.00;99339.65;67651;1281;1016165;-70
2023/11/22 02:54:38;;;;;;;30.60;11.00;;;;;;;1.52;100.00;99341.72;67686;1280;1016658;-70
2023/11/22 02:57:42;;;;;;;29.80;12.10;;;;;;;1.53;100.00;99344.12;67702;1280;1016442;-70
2023/11/22 03:00:44;;;;;;;30.00;11.10;;;;;;;1.64;100.00;99348.77;67693;1281;1016468;-70
2023/11/22 03:03:47;;;;;;;30.00;12.00;;;;;;;1.75;100.00;99352.89;67684;1280;1016441;-69
2023/11/22 03:06:49;;;;;;;30.20;11.50;;;;;;;1.72;100.00;99356.41;67638;1280;1016470;-70
2023/11/22 03:09:52;;;;;;;29.50;11.50;;;;;;;1.64;100.00;99356.17;67699;1280;1016318;-70
2023/11/22 03:12:55;;;;;;;30.70;11.00;;;;;;;1.86;100.00;99355.30;67680;1280;1016362;-70
2023/11/22 03:15:58;;;;;;;33.10;12.00;;;;;;;1.92;100.00;99356.23;67670;1280;1016392;-70
2023/11/22 03:19:03;;;;;;;30.70;11.70;;;;;;;1.95;100.00;99360.33;67654;1280;1016480;-69
2023/11/22 03:22:06;;;;;;;32.20;11.40;;;;;;;1.98;100.00;99368.55;67637;1281;1017052;-70
2023/11/22 03:25:10;;;;;;;28.20;10.90;;;;;;;1.99;100.00;99376.65;67694;1280;1016184;-70
2023/11/22 03:28:12;;;;;;;31.20;11.50;;;;;;;1.97;100.00;99380.64;67709;1281;1016514;-70
2023/11/22 03:31:15;;;;;;;28.70;12.30;;;;;;;1.95;100.00;99386.55;67701;1280;1016334;-70
2023/11/22 03:34:40;;;;;;;29.10;10.40;;;;;;;1.97;100.00;99391.86;67663;1280;1016490;-70
2023/11/22 03:37:43;;;;;;;34.50;12.80;;;;;;;2.04;100.00;99395.19;67691;1280;1016112;-70
2023/11/22 03:40:45;;;;;;;32.30;12.20;;;;;;;1.92;100.00;99404.36;67677;1280;1019067;-70
2023/11/22 03:43:48;;;;;;;32.80;12.30;;;;;;;2.00;100.00;99413.38;67668;1280;1016227;-70
2023/11/22 03:46:50;;;;;;;29.10;11.20;;;;;;;1.97;100.00;99416.70;67678;1280;1016430;-69
2023/11/22 03:49:53;;;;;;;30.20;10.90;;;;;;;2.01;100.00;99424.91;67709;1280;1016448;-70
2023/11/22 03:52:56;;;;;;;;;;;;;;;1.96;100.00;99432.59;67646;1280;1016431;-69
2023/11/22 03:55:58;;;;;;;30.30;10.60;;;;;;;1.85;100.00;99437.77;67656;1280;1016807;-68
2023/11/22 03:59:01;;;;;;;28.80;11.00;;;;;;;1.43;100.00;99438.71;67666;1281;1019092;-69
2023/11/22 04:02:03;;;;;;;34.10;11.90;;;;;;;1.44;100.00;99453.52;67682;1281;1015949;-70
2023/11/22 04:05:06;;;;;;;30.30;11.10;;;;;;;1.44;100.00;99457.67;67683;1280;1016343;-70
2023/11/22 04:08:09;;;;;;;34.30;11.90;;;;;;;1.32;100.00;99457.83;67690;1280;1016252;-70
2023/11/22 04:11:12;;;;;;;28.20;10.40;;;;;;;1.30;100.00;99464.56;67626;1281;1016816;-70
2023/11/22 04:14:14;;;;;;;30.80;11.30;;;;;;;1.29;100.00;99471.31;67620;1281;1016732;-70
2023/11/22 04:17:18;;;;;;;;;;;;;;;1.39;100.00;99471.34;67698;1280;1016434;-70
2023/11/22 04:20:20;;;;;;;28.50;10.90;;;;;;;1.25;100.00;99478.08;67631;1280;1016443;-69
2023/11/22 04:23:23;;;;;;;31.00;10.80;;;;;;;1.37;100.00;99488.25;67679;1280;1016488;-70
2023/11/22 04:26:26;;;;;;;30.00;11.30;;;;;;;1.45;100.00;99497.13;67649;1280;1016386;-70
2023/11/22 04:29:29;;;;;;;28.00;10.90;;;;;;;1.51;100.00;99501.36;67684;1281;1016195;-70
2023/11/22 04:32:32;;;;;;;31.40;11.40;;;;;;;1.42;100.00;99508.88;67693;1281;1016365;-69
2023/11/22 04:35:36;;;;;;;28.00;10.10;;;;;;;1.36;100.00;99513.95;67635;1281;1017987;-70
2023/11/22 04:38:39;;;;;;;31.50;11.80;;;;;;;1.37;100.00;99516.70;67690;1281;1016953;-70
2023/11/22 04:41:41;;;;;;;30.20;11.10;;;;;;;1.44;100.00;99523.34;67687;1281;1016129;-70
2023/11/22 04:44:44;;;;;;;27.90;9.80;;;;;;;1.44;100.00;99528.33;67670;1281;1018921;-69
2023/11/22 04:47:46;;;;;;;30.40;11.20;;;;;;;1.42;100.00;99532.67;67637;1280;1016409;-70
2023/11/22 04:50:49;;;;;;;27.60;11.00;;;;;;;1.33;100.00;99536.90;67641;1281;1016038;-70
2023/11/22 04:53:52;;;;;;;;;;;;;;;1.32;100.00;99542.61;67701;1280;1016298;-70
2023/11/22 04:56:55;;;;;;;;;;;;;;;1.31;100.00;99546.77;67649;1280;1016436;-69
2023/11/22 05:00:00;;;;;;;30.30;10.90;;;;;;;1.35;100.00;99557.21;67673;1280;1016929;-70
2023/11/22 05:03:03;;;;;;;30.10;11.20;;;;;;;1.34;100.00;99565.32;67669;1280;1016338;-69
2023/11/22 05:06:06;;;;;;;;;;;;;;;1.31;100.00;99570.01;67714;1280;1016346;-69
2023/11/22 05:09:10;;;;;;;28.60;11.00;;;;;;;1.32;100.00;99574.48;67654;1281;1016460;-70
2023/11/22 05:12:14;;;;;;;32.50;11.10;;;;;;;1.33;100.00;99576.20;67636;1280;1016477;-70
2023/11/22 05:15:16;;;;;;;29.90;10.70;;;;;;;1.34;100.00;99579.63;67675;1280;1016465;-69
2023/11/22 05:18:19;;;;;;;30.40;10.80;;;;;;;1.37;100.00;99588.05;67649;1280;1016259;-70
2023/11/22 05:21:22;;;;;;;31.60;11.30;;;;;;;1.29;100.00;99591.41;67705;1281;1016957;-67
2023/11/22 05:24:24;;;;;;;32.30;12.10;;;;;;;1.45;100.00;99598.65;67676;1280;1016493;-70
2023/11/22 05:27:28;;;;;;;30.40;11.20;;;;;;;1.56;100.00;99605.23;67632;1280;1016468;-70
2023/11/22 05:30:30;;;;;;;30.60;11.20;;;;;;;1.42;100.00;99605.58;67674;1280;1016447;-69
2023/11/22 05:33:33;;;;;;;30.70;11.60;;;;;;;1.33;100.00;99611.34;67629;1281;1016652;-70
2023/11/22 05:36:35;;;;;;;32.00;12.00;;;;;;;1.32;100.00;99609.47;67624;1280;1016225;-69
2023/11/22 05:39:38;;;;;;;33.70;12.20;;;;;;;1.26;100.00;99611.77;67658;1280;1018727;-70
2023/11/22 05:42:40;;;;;;;34.50;14.00;;;;;;;1.43;100.00;99611.42;67667;1280;1017461;-70
2023/11/22 05:45:43;;;;;;;35.20;12.90;;;;;;;1.44;100.00;99619.50;67638;1280;1016243;-69
2023/11/22 05:48:45;;;;;;;35.90;13.00;;;;;;;1.41;100.00;99617.48;67653;1257;1019015;-70
2023/11/22 05:51:48;;;;;;;31.10;12.40;;;;;;;1.61;100.00;99618.80;67701;1280;1017299;-70
2023/11/22 05:54:51;;;;;;;;;;;;;;;1.72;100.00;99625.73;67657;1280;1016568;-70
2023/11/22 05:57:53;;;;;;;35.00;12.30;;;;;;;1.68;100.00;99635.09;67659;1280;1016416;-70
2023/11/22 06:00:56;;;;;;;34.00;12.20;;;;;;;1.71;100.00;99638.34;67654;1280;1016471;-69
2023/11/22 06:03:58;;;;;;;36.90;13.50;;;;;;;1.67;100.00;99638.38;67668;1281;1016232;-70
2023/11/22 06:07:01;;;;;;;33.20;13.30;;;;;;;1.51;100.00;99643.89;67636;1280;1016316;-67
2023/11/22 06:10:03;;;;;;;35.00;12.50;;;;;;;1.48;100.00;99648.42;67638;1280;1016493;-70
2023/11/22 06:13:06;;;;;;;33.80;13.00;;;;;;;1.51;100.00;99651.48;67658;1281;1016436;-69
2023/11/22 06:16:09;;;;;;;;;;;;;;;1.52;100.00;99651.31;67652;1280;1016482;-70
2023/11/22 06:19:11;;;;;;;32.10;13.10;;;;;;;1.45;100.00;99654.66;67627;1281;1016189;-70
2023/11/22 06:22:14;;;;;;;36.30;14.40;;;;;;;1.54;100.00;99656.63;67649;1281;1016447;-70
2023/11/22 06:25:17;;;;;;;33.80;12.80;;;;;;;1.62;100.00;99651.71;67638;1280;1016384;-70
2023/11/22 06:28:19;;;;;;;33.20;12.00;;;;;;;1.70;100.00;99661.80;67648;1280;1017482;-70
2023/11/22 06:31:22;;;;;;;31.50;12.60;;;;;;;1.58;100.00;99671.40;67642;1280;1016295;-70
2023/11/22 06:34:24;;;;;;;32.50;12.30;;;;;;;1.53;100.00;99678.02;67625;1280;1018134;-68
2023/11/22 06:37:27;;;;;;;;;;;;;;;1.50;100.00;99672.36;67670;1280;1016395;-70
2023/11/22 06:40:30;;;;;;;34.80;13.10;;;;;;;1.60;100.00;99678.47;67665;1280;1016208;-70
2023/11/22 06:43:33;;;;;;;37.60;13.60;;;;;;;1.65;100.00;99688.58;67676;1280;1016394;-70
2023/11/22 06:46:36;;;;;;;36.00;13.60;;;;;;;1.82;100.00;99693.58;67673;1280;1016417;-69
2023/11/22 06:49:38;;;;;;;37.60;13.50;;;;;;;1.76;100.00;99695.70;56361;1280;2015831;-70
2023/11/22 06:52:42;;;;;;;36.10;12.80;;;;;;;1.89;100.00;99701.77;51232;1281;2015911;-70
2023/11/22 06:55:45;;;;;;;35.10;13.60;;;;;;;1.95;100.00;99706.69;51842;1280;2017095;-69
2023/11/22 06:58:48;;;;;;;35.80;12.80;;;;;;;1.80;100.00;99713.76;49712;1280;2015888;-69
2023/11/22 07:01:50;;;;;;;35.80;13.60;;;;;;;1.78;100.00;99714.31;51982;1280;2016813;-70
2023/11/22 07:04:54;;;;;;;33.50;12.50;;;;;;;1.85;100.00;99709.05;50460;1280;2016075;-70
2023/11/22 07:07:57;;;;;;;36.80;12.80;;;;;;;1.97;100.00;99710.48;50471;1280;2015848;-69
2023/11/22 07:11:03;;;;;;;35.20;12.90;;;;;;;2.00;100.00;99717.17;51234;1280;2016389;-70
2023/11/22 07:14:06;;;;;;;35.20;13.10;;;;;;;2.02;100.00;99717.49;51085;1280;2016009;-69
2023/11/22 07:17:08;;;;;;;36.60;14.30;;;;;;;1.99;100.00;99718.05;50356;1280;2015965;-70
2023/11/22 07:20:16;;;;;;;38.40;15.10;;;;;;;1.97;100.00;99725.98;52003;1280;2015554;-69
2023/11/22 07:23:19;;;;;;;35.30;13.30;;;;;;;1.92;100.00;99735.03;51996;1280;2016110;-69
2023/11/22 07:26:22;;;;;;;37.90;14.50;;;;;;;1.86;100.00;99743.89;51849;1280;2016377;-69
2023/11/22 07:29:26;;;;;;;;;;;;;;;1.97;100.00;99748.42;51236;1280;2016067;-68
2023/11/22 07:32:29;;;;;;;39.30;15.00;;;;;;;1.86;100.00;99741.98;50478;1280;2016471;-69
2023/11/22 07:35:32;;;;;;;39.50;15.60;;;;;;;2.00;100.00;99747.17;49726;1280;2016314;-69
2023/11/22 07:38:39;;;;;;;36.60;12.60;;;;;;;2.09;100.00;99760.37;51227;1280;2015643;-70
2023/11/22 07:41:42;;;;;;;40.70;14.50;;;;;;;2.03;100.00;99765.09;49562;1281;2016050;-69
2023/11/22 07:44:46;;;;;;;38.50;14.90;;;;;;;1.98;100.00;99767.56;49714;1281;2016393;-69
2023/11/22 07:47:48;;;;;;;35.60;13.40;;;;;;;1.79;100.00;99766.90;51817;1281;2018314;-70
2023/11/22 07:50:53;;;;;;;33.00;12.40;;;;;;;1.79;100.00;99768.80;49701;1281;2017133;-68
2023/11/22 07:53:55;;;;;;;35.90;13.80;;;;;;;1.70;100.00;99777.16;51813;1281;2016336;-69
2023/11/22 07:56:59;;;;;;;38.00;14.70;;;;;;;1.70;100.00;99782.86;50446;1281;2015717;-69
2023/11/22 08:00:07;;;;;;;36.40;13.50;;;;;;;1.74;100.00;99781.27;54104;1281;2016379;-69
2023/11/22 08:03:09;;;;;;;36.80;13.70;;;;;;;1.76;100.00;99781.60;67620;1281;1016457;-69
2023/11/22 08:06:12;;;;;;;36.40;13.00;;;;;;;1.75;100.00;99777.80;67623;1281;1016490;-69
2023/11/22 08:09:16;;;;;;;33.40;12.10;;;;;;;1.73;100.00;99774.53;67582;1281;1016058;-69
2023/11/22 08:12:19;;;;;;;32.10;12.00;;;;;;;1.74;100.00;99787.98;67638;1281;1016390;-69
2023/11/22 08:15:21;;;;;;;34.80;13.50;;;;;;;1.69;100.00;99785.61;67597;1281;1016234;-69
2023/11/22 08:18:24;;;;;;;34.20;13.90;;;;;;;1.61;100.00;99786.73;67622;1281;1016475;-69
2023/11/22 08:21:28;;;;;;;34.00;13.10;;;;;;;1.55;100.00;99785.57;67644;1281;1016406;-69
2023/11/22 08:24:30;;;;;;;34.90;12.20;;;;;;;1.58;100.00;99782.27;67653;1281;1016472;-69
2023/11/22 08:27:33;;;;;;;;;;;;;;;1.61;100.00;99793.27;67618;1281;1016096;-69
2023/11/22 08:30:37;;;;;;;35.90;12.90;;;;;;;1.59;100.00;99798.30;67614;1281;1016408;-69
2023/11/22 08:33:39;;;;;;;34.50;12.50;;;;;;;1.67;100.00;99799.09;67584;1281;1016364;-69
2023/11/22 08:36:42;;;;;;;32.30;12.10;;;;;;;1.81;100.00;99799.30;67613;1281;1017708;-69
2023/11/22 08:39:44;;;;;;;37.00;11.60;;;;;;;1.99;100.00;99801.20;67636;1280;1016292;-69
2023/11/22 08:42:47;;;;;;;;;;;;;;;1.94;100.00;99808.83;67672;1280;1016013;-69
2023/11/22 08:45:50;;;;;;;;;;;;;;;1.83;100.00;99817.57;67671;1280;1016281;-69
2023/11/22 08:48:52;;;;;;;33.10;12.80;;;;;;;1.91;100.00;99820.60;67681;1280;1016546;-69
2023/11/22 08:51:55;;;;;;;35.20;12.50;;;;;;;1.90;100.00;99815.27;67655;1280;1016295;-69
2023/11/22 08:55:00;;;;;;;35.00;12.30;;;;;;;2.02;100.00;99814.09;67620;1280;1015943;-68
2023/11/22 08:58:02;;;;;;;35.20;12.80;;;;;;;2.03;100.00;99811.67;67637;1280;1016438;-69
2023/11/22 09:01:05;;;;;;;33.80;13.30;;;;;;;2.00;100.00;99819.81;67674;1280;1016448;-69
2023/11/22 09:04:08;;;;;;;34.10;14.10;;;;;;;2.06;100.00;99823.73;67637;1280;1016417;-69
2023/11/22 09:07:14;;;;;;;34.00;13.40;;;;;;;2.15;100.00;99825.70;67702;1280;1017099;-68
2023/11/22 09:10:18;;;;;;;33.60;13.10;;;;;;;2.23;100.00;99830.79;67698;1280;1016345;-68
2023/11/22 09:13:22;;;;;;;31.00;12.20;;;;;;;2.34;100.00;99831.88;67667;1280;1016821;-68
2023/11/22 09:16:25;;;;;;;29.90;11.60;;;;;;;2.21;100.00;99835.13;67643;1280;1016785;-68
2023/11/22 09:19:28;;;;;;;32.70;12.70;;;;;;;2.19;100.00;99840.16;67651;1280;1015770;-69
2023/11/22 09:22:31;;;;;;;30.60;11.50;;;;;;;2.31;100.00;99837.95;67688;1280;1017077;-68
2023/11/22 09:25:36;;;;;;;35.70;13.20;;;;;;;2.35;100.00;99836.35;67671;1280;1016432;-69
2023/11/22 09:28:38;;;;;;;31.90;12.10;;;;;;;2.50;100.00;99838.42;67647;1280;1016185;-68
2023/11/22 09:31:42;;;;;;;34.70;12.10;;;;;;;2.31;100.00;99836.75;67656;1280;1016375;-68
2023/11/22 09:34:45;;;;;;;30.70;12.10;;;;;;;2.40;100.00;99829.23;67635;1280;1016213;-68
2023/11/22 09:37:47;;;;;;;30.60;12.40;;;;;;;2.53;100.00;99836.33;67670;1259;1016543;-69
2023/11/22 09:40:50;;;;;;;32.00;12.70;;;;;;;2.53;100.00;99839.26;67648;1280;1016482;-69
2023/11/22 09:43:52;;;;;;;;;;;;;;;2.49;100.00;99839.83;67668;1279;1016267;-69
2023/11/22 09:46:55;;;;;;;31.20;11.50;;;;;;;2.50;100.00;99848.79;67673;1280;1016499;-69
2023/11/22 09:49:58;;;;;;;;;;;;;;;2.51;100.00;99851.37;67657;1280;1016359;-69
2023/11/22 09:53:00;;;;;;;29.40;11.80;;;;;;;2.62;100.00;99862.12;67615;1280;1016374;-69
2023/11/22 09:56:03;;;;;;;31.40;11.60;;;;;;;2.65;100.00;99873.83;67637;1280;1019324;-69
2023/11/22 09:59:06;;;;;;;32.10;11.90;;;;;;;2.69;100.00;99876.02;67676;1280;1016426;-69
2023/11/22 10:02:09;;;;;;;31.70;12.00;;;;;;;2.74;100.00;99876.48;67636;1280;1016472;-69
2023/11/22 10:05:15;;;;;;;29.40;10.90;;;;;;;2.73;100.00;99882.88;67636;1280;1016464;-68
2023/11/22 10:08:18;;;;;;;;;;;;;;;2.61;100.00;99889.08;67643;1280;1016318;-67
2023/11/22 10:11:21;;;;;;;;;;;;;;;2.37;100.00;99882.77;67682;1280;1016264;-68
2023/11/22 10:14:24;;;;;;;29.60;10.20;;;;;;;2.32;100.00;99879.73;67633;1280;1016117;-69
2023/11/22 10:17:26;;;;;;;26.20;10.10;;;;;;;2.46;100.00;99876.46;67676;1280;1016474;-68
2023/11/22 10:20:29;;;;;;;28.40;11.30;;;;;;;2.63;100.00;99875.23;67671;1280;1016483;-68
2023/11/22 10:23:31;;;;;;;27.40;10.60;;;;;;;2.80;100.00;99860.17;67632;1280;1016421;-68
2023/11/22 10:26:35;;;;;;;29.00;11.10;;;;;;;2.83;100.00;99860.82;67628;1280;1016434;-69
2023/11/22 10:29:38;;;;;;;27.30;10.10;;;;;;;2.87;100.00;99853.86;67638;1280;1016228;-69
2023/11/22 10:32:40;;;;;;;27.30;10.60;;;;;;;2.91;100.00;99850.86;67679;1280;1016629;-68
2023/11/22 10:35:43;;;;;;;26.10;9.70;;;;;;;2.93;100.00;99853.60;67642;1280;1016104;-69
2023/11/22 10:38:46;;;;;;;;;;;;;;;3.05;100.00;99852.41;67653;1280;1016409;-69
2023/11/22 10:41:50;;;;;;;24.80;9.30;;;;;;;2.96;100.00;99849.60;67685;1280;1016352;-69
2023/11/22 10:44:53;;;;;;;26.20;9.50;;;;;;;2.81;100.00;99848.23;67701;1280;1016503;-69
2023/11/22 10:47:55;;;;;;;27.30;10.90;;;;;;;2.91;100.00;99844.48;67634;1280;1016332;-69
2023/11/22 10:50:58;;;;;;;27.90;10.90;;;;;;;3.04;100.00;99858.48;67647;1280;1016479;-69
2023/11/22 10:54:00;;;;;;;28.60;10.80;;;;;;;3.16;100.00;99859.34;67674;1280;1016874;-68
2023/11/22 10:57:03;;;;;;;29.30;10.70;;;;;;;3.15;100.00;99869.38;67662;1280;1016409;-69
2023/11/22 11:00:07;;;;;;;27.00;10.60;;;;;;;3.05;100.00;99869.02;67609;1280;1016471;-69
2023/11/22 11:03:10;;;;;;;24.40;8.80;;;;;;;3.09;100.00;99863.77;67621;1280;1017106;-69
2023/11/22 11:06:14;;;;;;;26.90;9.40;;;;;;;3.11;100.00;99874.11;67656;1280;1016454;-69
2023/11/22 11:09:21;;;;;;;28.60;10.40;;;;;;;3.04;100.00;99880.59;67677;1257;1016442;-69
2023/11/22 11:12:23;;;;;;;27.50;10.10;;;;;;;3.03;100.00;99880.77;67653;1280;1017292;-69
2023/11/22 11:15:28;;;;;;;;;;;;;;;3.12;100.00;99870.80;67638;1280;1016342;-69
2023/11/22 11:18:32;;;;;;;25.20;8.50;;;;;;;3.12;100.00;99883.23;67656;1280;1018602;-69
2023/11/22 11:21:36;;;;;;;27.40;9.50;;;;;;;3.17;100.00;99891.31;67647;1280;1016558;-69
2023/11/22 11:24:38;;;;;;;25.50;9.20;;;;;;;3.20;100.00;99901.81;67631;1280;1016138;-67
2023/11/22 11:27:41;;;;;;;26.10;8.90;;;;;;;3.24;100.00;99904.88;67637;1280;1016021;-68
2023/11/22 11:30:44;;;;;;;26.10;9.40;;;;;;;3.25;100.00;99898.45;67672;1280;1016397;-69
2023/11/22 11:33:46;;;;;;;25.30;9.20;;;;;;;3.26;100.00;99890.83;67650;1280;1016271;-69
2023/11/22 11:36:50;;;;;;;25.60;8.30;;;;;;;3.30;100.00;99896.67;67668;1280;1016341;-69
2023/11/22 11:39:53;;;;;;;22.90;7.70;;;;;;;3.48;100.00;99893.98;67648;1280;1016308;-69
2023/11/22 11:42:57;;;;;;;22.20;6.70;;;;;;;3.60;100.00;99893.11;67662;1280;1016395;-68
2023/11/22 11:45:59;;;;;;;;;;;;;;;3.70;100.00;99888.98;67685;1280;1019008;-68
2023/11/22 11:49:04;;;;;;;20.10;5.70;;;;;;;3.62;100.00;99884.44;67641;1280;1016497;-69
2023/11/22 11:52:07;;;;;;;13.90;4.20;;;;;;;3.65;100.00;99885.41;67659;1280;1016527;-69
2023/11/22 11:55:12;;;;;;;17.40;3.90;;;;;;;3.63;100.00;99891.49;67673;1280;1016202;-69
2023/11/22 11:58:15;;;;;;;12.10;3.20;;;;;;;3.39;100.00;99898.95;67665;1280;1016283;-69
2023/11/22 12:01:17;;;;;;;14.40;3.80;;;;;;;3.60;100.00;99897.09;67677;1280;1016554;-69
2023/11/22 12:04:20;;;;;;;24.10;7.00;;;;;;;3.85;100.00;99900.67;67691;1280;1016418;-69
2023/11/22 12:07:22;;;;;;;12.30;3.50;;;;;;;3.74;100.00;99896.52;67620;1280;1016515;-69
2023/11/22 12:10:25;;;;;;;16.70;3.80;;;;;;;3.78;100.00;99883.65;67640;1280;1016747;-69
2023/11/22 12:13:27;;;;;;;16.30;4.10;;;;;;;3.93;100.00;99875.80;67668;1280;1016422;-69
2023/11/22 12:16:31;;;;;;;18.00;3.90;;;;;;;4.09;100.00;99878.27;67595;1280;1016208;-69
2023/11/22 12:19:34;;;;;;;14.40;3.40;;;;;;;4.22;100.00;99871.48;67661;1280;1016512;-69
2023/11/22 12:22:37;;;;;;;15.10;4.00;;;;;;;4.36;100.00;99872.44;67609;1280;1016494;-69
2023/11/22 12:25:39;;;;;;;13.00;3.80;;;;;;;4.35;100.00;99875.91;67686;1280;1017990;-68
2023/11/22 12:28:42;;;;;;;15.80;4.80;;;;;;;4.43;100.00;99868.86;67677;1280;1017650;-69
2023/11/22 12:31:46;;;;;;;;;;;;;;;4.44;100.00;99876.46;67655;1280;1016377;-69
2023/11/22 12:34:48;;;;;;;11.20;3.40;;;;;;;4.50;100.00;99885.86;67661;1280;1016326;-69
2023/11/22 12:37:51;;;;;;;16.40;4.30;;;;;;;4.57;100.00;99888.31;67662;1280;1016500;-69
2023/11/22 12:40:53;;;;;;;17.00;4.10;;;;;;;4.63;100.00;99895.30;67671;1280;1016190;-69
2023/11/22 12:43:56;;;;;;;15.20;4.30;;;;;;;4.67;100.00;99902.34;67691;1280;1016390;-69
2023/11/22 12:46:59;;;;;;;14.50;3.90;;;;;;;4.73;100.00;99911.93;67647;1280;1016485;-69
2023/11/22 12:50:02;;;;;;;14.70;4.20;;;;;;;4.75;100.00;99920.19;67684;1280;1016357;-68
2023/11/22 12:53:04;;;;;;;18.60;5.10;;;;;;;4.72;100.00;99934.64;67653;1280;1016455;-69
2023/11/22 12:56:08;;;;;;;21.10;6.40;;;;;;;4.69;100.00;99938.48;67669;1280;1017056;-67
2023/11/22 12:59:11;;;;;;;19.80;5.90;;;;;;;4.52;100.00;99937.44;67667;1280;1016246;-68
2023/11/22 13:02:16;;;;;;;19.90;6.60;;;;;;;4.19;100.00;99935.23;67674;1280;1016408;-68
2023/11/22 13:05:19;;;;;;;20.00;6.30;;;;;;;4.13;100.00;99921.66;67661;1259;1016210;-69
2023/11/22 13:08:22;;;;;;;20.10;5.90;;;;;;;3.96;100.00;99918.84;67708;1280;1019254;-68
2023/11/22 13:11:24;;;;;;;36.10;10.60;;;;;;;3.94;100.00;99901.57;67707;1280;1018055;-69
2023/11/22 13:14:37;;;;;;;21.20;6.90;;;;;;;3.88;100.00;99895.79;67694;1280;1016174;-69
2023/11/22 13:17:40;;;;;;;18.60;5.80;;;;;;;3.78;100.00;99901.14;67685;1280;1016377;-69
2023/11/22 13:20:42;;;;;;;19.50;6.00;;;;;;;3.79;100.00;99903.17;67659;1280;1016488;-68
2023/11/22 13:23:45;;;;;;;21.30;6.50;;;;;;;3.69;100.00;99900.41;67655;1280;1015496;-68
2023/11/22 13:26:48;;;;;;;20.90;6.20;;;;;;;3.66;100.00;99890.59;67689;1280;1016427;-69
2023/11/22 13:29:52;;;;;;;20.30;7.00;;;;;;;3.57;100.00;99897.31;67670;1280;1016163;-67
2023/11/22 13:32:56;;;;;;;20.00;7.20;;;;;;;3.67;100.00;99910.81;67636;1280;1018191;-68
2023/11/22 13:35:59;;;;;;;25.90;7.10;;;;;;;3.83;100.00;99917.84;67659;1280;1016240;-68
2023/11/22 13:39:03;;;;;;;21.90;7.00;;;;;;;3.76;100.00;99928.50;67679;1280;1016400;-70
2023/11/22 13:42:05;;;;;;;22.20;6.90;;;;;;;3.55;100.00;99932.11;67659;1280;1016488;-68
2023/11/22 13:45:08;;;;;;;21.00;6.80;;;;;;;3.38;100.00;99936.48;65172;1279;5399254;-69
2023/11/22 13:48:11;;;;;;;20.40;6.10;;;;;;;3.25;100.00;99951.02;67669;1280;1016452;-69
2023/11/22 13:51:24;;;;;;;20.80;6.70;;;;;;;3.19;100.00;99956.98;67681;1280;1016171;-69